Time;durP1;ratioP1;P1;durP2;ratioP2;P2;SDS_P1;SDS_P2;PMS_P1;PMS_P2;Temp;Humidity;BMP_temperature;BMP_pressure;BME280_temperature;BME280_humidity;BME280_pressure;Samples;Min_cycle;Max_cycle;Signal;HPM_P1;HPM_P2
2022/01/21 00:00:31;;;;;;;16.57;3.87;;;5.10;93.00;;;;;;5185291;27;20158;-87
2022/01/21 00:02:57;;;;;;;13.40;4.07;;;5.00;92.60;;;;;;5169289;27;20221;-82
2022/01/21 00:05:23;;;;;;;11.00;4.00;;;5.10;92.50;;;;;;5180699;27;20192;-82
2022/01/21 00:07:50;;;;;;;9.33;3.97;;;5.00;92.30;;;;;;5181033;27;20248;-81
2022/01/21 00:10:16;;;;;;;16.33;5.23;;;5.00;92.70;;;;;;5179328;27;20218;-83
2022/01/21 00:12:41;;;;;;;10.77;4.07;;;5.00;92.70;;;;;;5165249;27;20204;-84
2022/01/21 00:15:10;;;;;;;14.07;4.13;;;5.00;93.00;;;;;;5159817;27;20521;-82
2022/01/21 00:17:36;;;;;;;18.00;4.17;;;4.90;92.70;;;;;;5159187;27;20218;-84
2022/01/21 00:31:04;;;;;;;10.53;3.97;;;4.70;94.80;;;;;;5156904;27;20212;-82
2022/01/21 00:33:29;;;;;;;17.03;4.73;;;4.70;94.30;;;;;;5137745;27;20589;-80
2022/01/21 00:35:55;;;;;;;16.10;5.43;;;4.70;94.40;;;;;;5156580;27;20257;-79
2022/01/21 00:38:23;;;;;;;15.43;4.30;;;4.70;94.50;;;;;;5138277;27;20173;-80
2022/01/21 00:40:49;;;;;;;16.07;5.03;;;4.70;94.50;;;;;;5156455;27;20168;-80
2022/01/21 00:43:29;;;;;;;12.47;4.40;;;4.90;94.10;;;;;;5157078;27;20169;-80
2022/01/21 00:45:55;;;;;;;9.37;4.40;;;4.90;94.00;;;;;;5137924;27;20177;-81
2022/01/21 00:48:21;;;;;;;11.40;3.70;;;5.00;93.80;;;;;;5138525;27;20521;-81
2022/01/21 00:50:47;;;;;;;12.27;5.13;;;4.90;93.20;;;;;;5137555;27;20239;-80
2022/01/21 00:53:14;;;;;;;20.13;6.10;;;4.90;93.30;;;;;;5156654;27;20181;-81
2022/01/21 00:55:39;;;;;;;15.20;4.80;;;4.90;92.60;;;;;;5157779;27;20165;-81
2022/01/21 00:58:06;;;;;;;16.40;4.67;;;4.90;92.60;;;;;;5139136;27;20184;-79
2022/01/21 01:00:32;;;;;;;16.57;4.90;;;4.80;92.30;;;;;;5138725;27;20173;-83
2022/01/21 01:02:59;;;;;;;16.03;4.97;;;4.70;93.10;;;;;;5156229;27;20240;-81
2022/01/21 01:05:26;;;;;;;18.90;6.00;;;4.70;93.70;;;;;;5156011;27;20236;-83
2022/01/21 01:07:53;;;;;;;15.93;6.03;;;4.70;93.30;;;;;;5155551;27;20166;-83
2022/01/21 01:10:34;;;;;;;13.63;5.67;;;4.60;93.80;;;;;;5163182;27;20215;-85
2022/01/21 01:19:53;;;;;;;20.17;7.00;;;4.60;94.00;;;;;;5176163;27;20161;-81
2022/01/21 01:21:15;;;;;;;16.97;6.67;;;4.40;95.10;;;;;;5156195;27;20169;-80
2022/01/21 01:24:04;;;;;;;15.43;6.00;;;4.30;95.30;;;;;;5155748;27;20169;-79
2022/01/21 01:29:21;;;;;;;18.50;6.43;;;4.40;95.50;;;;;;5177617;27;20176;-78
2022/01/21 01:31:47;;;;;;;16.10;5.87;;;4.40;95.00;;;;;;5159267;27;20637;-80
2022/01/21 01:34:13;;;;;;;17.23;5.90;;;4.30;95.90;;;;;;5163280;27;20230;-80
2022/01/21 01:36:50;;;;;;;17.17;6.67;;;4.20;95.60;;;;;;5160863;27;20154;-78
2022/01/21 01:39:44;;;;;;;14.33;5.73;;;4.40;95.90;;;;;;5157235;27;20165;-80
2022/01/21 01:50:06;;;;;;;16.97;6.70;;;4.40;95.50;;;;;;5162588;27;20212;-78
2022/01/21 01:52:32;;;;;;;15.97;5.63;;;4.30;95.60;;;;;;5170522;27;20173;-79
2022/01/21 01:54:59;;;;;;;12.53;5.90;;;4.30;95.70;;;;;;5177529;27;20170;-78
2022/01/21 01:57:39;;;;;;;13.47;4.83;;;4.30;95.80;;;;;;5176661;27;20179;-78
2022/01/21 02:00:11;;;;;;;14.33;5.57;;;4.30;95.40;;;;;;5171235;27;20652;-77
2022/01/21 02:02:36;;;;;;;12.00;4.50;;;4.40;95.50;;;;;;5157849;27;20267;-78
2022/01/21 02:05:02;;;;;;;11.63;4.57;;;4.40;95.00;;;;;;5169082;27;20185;-83
2022/01/21 02:07:32;;;;;;;15.23;5.00;;;4.40;95.10;;;;;;5163160;27;20187;-81
2022/01/21 02:10:10;;;;;;;14.50;5.60;;;4.50;94.70;;;;;;5155821;27;20653;-84
2022/01/21 02:12:39;;;;;;;15.63;5.07;;;4.40;94.60;;;;;;5138489;27;20195;-79
2022/01/21 02:15:05;;;;;;;13.23;5.53;;;4.30;95.00;;;;;;5155194;27;20656;-79
2022/01/21 02:22:47;;;;;;;9.97;5.07;;;4.30;96.60;;;;;;5155024;27;20165;-84
2022/01/21 02:25:18;;;;;;;13.57;5.20;;;4.20;96.50;;;;;;5155615;27;20189;-84
2022/01/21 02:27:49;;;;;;;16.73;5.10;;;4.20;96.50;;;;;;5154743;27;20161;-82
2022/01/21 02:30:20;;;;;;;16.10;5.00;;;4.20;96.20;;;;;;5136717;27;20661;-84
2022/01/21 02:32:48;;;;;;;11.93;5.13;;;4.30;96.10;;;;;;5136435;27;20169;-80
2022/01/21 02:35:15;;;;;;;15.23;5.10;;;4.20;96.30;;;;;;5154967;27;20688;-79
2022/01/21 02:37:42;;;;;;;11.40;5.10;;;4.30;96.50;;;;;;5136250;27;20222;-81
2022/01/21 02:40:09;;;;;;;22.50;5.67;;;4.20;96.30;;;;;;5154954;27;20166;-85
2022/01/21 02:42:36;;;;;;;17.83;4.53;;;4.20;96.40;;;;;;5155723;27;20287;-80
2022/01/21 02:45:05;;;;;;;22.23;6.10;;;4.30;96.40;;;;;;5157164;27;20264;-82
2022/01/21 02:47:31;;;;;;;13.07;4.20;;;4.30;96.50;;;;;;5158339;27;20635;-82
2022/01/21 02:49:56;;;;;;;14.10;5.13;;;4.40;96.20;;;;;;5157991;27;20201;-84
2022/01/21 02:52:26;;;;;;;12.63;4.80;;;4.40;95.90;;;;;;5158594;27;20173;-83
2022/01/21 02:54:52;;;;;;;15.67;5.27;;;4.50;95.80;;;;;;5139983;27;20209;-79
2022/01/21 02:57:18;;;;;;;13.23;5.23;;;4.60;95.70;;;;;;5158349;27;20189;-80
2022/01/21 02:59:44;;;;;;;11.73;3.87;;;4.50;95.30;;;;;;5139733;27;20647;-79
2022/01/21 03:02:10;;;;;;;16.23;4.70;;;4.50;95.60;;;;;;5139354;27;20169;-80
2022/01/21 03:04:51;;;;;;;14.87;4.17;;;4.50;95.60;;;;;;5158128;27;20511;-84
2022/01/21 03:07:17;;;;;;;11.87;3.93;;;4.60;95.20;;;;;;5139919;27;20177;-84
2022/01/21 03:09:43;;;;;;;13.87;4.10;;;4.60;95.00;;;;;;5139420;27;20207;-82
2022/01/21 03:12:09;;;;;;;13.80;4.50;;;4.60;95.30;;;;;;5158038;27;20162;-82
2022/01/21 03:14:34;;;;;;;14.33;4.37;;;4.60;95.00;;;;;;5157529;27;20621;-82
2022/01/21 03:17:00;;;;;;;15.07;5.40;;;4.50;95.20;;;;;;5139097;27;20175;-79
2022/01/21 03:19:26;;;;;;;10.83;3.53;;;4.50;95.50;;;;;;5157556;27;20244;-80
2022/01/21 03:21:51;;;;;;;14.33;4.30;;;4.50;95.90;;;;;;5157589;27;20189;-79
2022/01/21 03:24:17;;;;;;;11.27;3.50;;;4.40;96.40;;;;;;5139208;27;20578;-80
2022/01/21 03:26:44;;;;;;;15.40;3.83;;;4.50;96.60;;;;;;5139365;27;20659;-81
2022/01/21 03:29:10;;;;;;;8.97;3.40;;;4.40;96.90;;;;;;5157658;27;20193;-79
2022/01/21 03:31:35;;;;;;;11.53;3.20;;;4.60;96.90;;;;;;5139207;27;20209;-79
2022/01/21 03:34:02;;;;;;;10.83;3.63;;;4.70;96.30;;;;;;5138858;27;20176;-80
2022/01/21 03:36:29;;;;;;;13.50;4.07;;;4.60;96.20;;;;;;5140088;27;20596;-80
2022/01/21 03:38:55;;;;;;;8.70;3.53;;;4.50;96.50;;;;;;5158009;27;20172;-78
2022/01/21 03:41:21;;;;;;;10.77;3.43;;;4.60;96.60;;;;;;5171326;27;20186;-79
2022/01/21 03:43:49;;;;;;;12.37;3.83;;;4.70;96.60;;;;;;5145657;27;20709;-80
2022/01/21 03:46:17;;;;;;;13.97;4.23;;;4.80;96.50;;;;;;5149449;27;20238;-79
2022/01/21 03:48:47;;;;;;;13.43;3.77;;;4.90;95.90;;;;;;5175626;27;20166;-78
2022/01/21 03:51:13;;;;;;;12.90;3.50;;;4.80;95.80;;;;;;5164485;27;20208;-79
2022/01/21 03:53:46;;;;;;;11.97;4.07;;;4.70;95.80;;;;;;5163449;27;20186;-80
2022/01/21 03:56:16;;;;;;;10.27;3.70;;;4.70;96.40;;;;;;5172936;27;20206;-79
2022/01/21 03:58:45;;;;;;;15.43;4.20;;;4.70;96.50;;;;;;5143305;27;20601;-80
2022/01/21 04:01:10;;;;;;;10.97;3.60;;;4.80;96.60;;;;;;5158803;27;20173;-80
2022/01/21 04:03:37;;;;;;;13.47;4.40;;;4.80;96.50;;;;;;5167905;27;20150;-81
2022/01/21 04:06:03;;;;;;;12.30;4.37;;;4.80;96.60;;;;;;5160650;27;20569;-83
2022/01/21 04:08:29;;;;;;;15.77;4.97;;;4.90;96.40;;;;;;5150027;27;20310;-83
2022/01/21 04:10:55;;;;;;;11.87;4.23;;;5.00;96.10;;;;;;5143250;27;20212;-82
2022/01/21 04:13:23;;;;;;;11.00;4.37;;;5.00;95.70;;;;;;5159604;27;20160;-83
2022/01/21 04:15:53;;;;;;;16.70;4.87;;;4.90;95.40;;;;;;5138690;27;20182;-83
2022/01/21 04:18:19;;;;;;;14.93;5.30;;;4.90;95.50;;;;;;5139984;27;20188;-83
2022/01/21 04:20:47;;;;;;;16.00;4.93;;;4.80;95.90;;;;;;5148788;27;20174;-79
2022/01/21 04:23:14;;;;;;;15.90;4.50;;;4.80;95.80;;;;;;5164591;27;20172;-79
2022/01/21 04:25:40;;;;;;;12.80;5.27;;;4.80;96.10;;;;;;5160516;27;20173;-78
2022/01/21 04:28:06;;;;;;;14.67;5.63;;;4.80;96.20;;;;;;5140395;27;20174;-78
2022/01/21 04:30:33;;;;;;;18.80;5.20;;;4.80;96.00;;;;;;5160078;27;20277;-80
2022/01/21 04:32:59;;;;;;;18.40;5.80;;;4.80;96.20;;;;;;5157145;27;20173;-84
2022/01/21 04:35:26;;;;;;;11.47;5.03;;;4.80;96.10;;;;;;5157672;27;20173;-83
2022/01/21 04:37:58;;;;;;;13.97;5.20;;;4.80;96.20;;;;;;5142055;27;20265;-80
2022/01/21 04:40:29;;;;;;;13.30;4.50;;;4.80;96.20;;;;;;5140307;27;20173;-79
2022/01/21 04:48:27;;;;;;;12.00;4.50;;;4.70;97.10;;;;;;5167065;27;20257;-79
2022/01/21 04:51:13;;;;;;;14.53;4.93;;;4.80;97.00;;;;;;5161364;27;20233;-81
2022/01/21 04:53:40;;;;;;;11.27;4.47;;;4.80;97.10;;;;;;5157322;27;20185;-81
2022/01/21 04:56:06;;;;;;;14.80;4.80;;;4.80;97.10;;;;;;5158516;27;20195;-81
2022/01/21 04:58:32;;;;;;;12.57;4.90;;;4.80;97.00;;;;;;5139309;27;20169;-81
2022/01/21 05:01:03;;;;;;;13.03;4.53;;;4.80;97.40;;;;;;5165772;27;20176;-79
2022/01/21 05:03:46;;;;;;;14.40;5.23;;;4.70;97.80;;;;;;5173848;27;20161;-79
2022/01/21 05:06:11;;;;;;;8.87;4.33;;;4.70;98.10;;;;;;5178102;27;20185;-80
2022/01/21 05:09:02;;;;;;;12.60;5.00;;;4.70;98.00;;;;;;5169170;27;20177;-80
2022/01/21 05:11:28;;;;;;;12.60;5.10;;;4.60;97.90;;;;;;5157975;27;20708;-81
2022/01/21 05:14:19;;;;;;;12.30;4.53;;;4.60;98.40;;;;;;5156350;27;20613;-81
2022/01/21 05:16:50;;;;;;;17.10;5.60;;;4.50;98.10;;;;;;5156583;27;20173;-84
2022/01/21 05:19:19;;;;;;;14.93;5.40;;;4.60;98.20;;;;;;5155655;27;20165;-80
2022/01/21 05:21:46;;;;;;;11.77;4.80;;;4.60;98.30;;;;;;5137083;27;20169;-80
2022/01/21 05:24:12;;;;;;;11.33;5.30;;;4.70;98.30;;;;;;5137870;27;20196;-81
2022/01/21 05:26:40;;;;;;;10.23;5.20;;;4.70;97.90;;;;;;5155669;27;20174;-81
2022/01/21 05:29:10;;;;;;;13.57;5.67;;;4.80;97.30;;;;;;5138195;27;20217;-84
2022/01/21 05:31:37;;;;;;;15.07;5.60;;;4.70;97.10;;;;;;5159463;27;20173;-85
2022/01/21 05:34:03;;;;;;;13.07;5.33;;;4.60;97.30;;;;;;5141200;27;20166;-84
2022/01/21 05:36:31;;;;;;;11.20;5.60;;;4.40;97.90;;;;;;5157648;27;20165;-81
2022/01/21 05:38:58;;;;;;;16.83;6.07;;;4.40;98.60;;;;;;5166350;27;20148;-79
2022/01/21 05:41:24;;;;;;;15.17;5.83;;;4.40;98.90;;;;;;5167322;27;20175;-79
2022/01/21 05:44:01;;;;;;;12.97;5.63;;;4.40;99.10;;;;;;5138832;27;20181;-82
2022/01/21 05:48:55;;;;;;;10.70;5.23;;;4.50;99.10;;;;;;5155351;27;20276;-78
2022/01/21 05:51:21;;;;;;;12.43;5.33;;;4.50;99.10;;;;;;5136657;27;20740;-79
2022/01/21 05:53:47;;;;;;;13.00;5.20;;;4.50;99.00;;;;;;5146717;27;20196;-80
2022/01/21 05:56:13;;;;;;;9.43;5.20;;;4.60;99.20;;;;;;5144158;27;20179;-83
2022/01/21 05:58:39;;;;;;;14.97;5.57;;;4.60;99.10;;;;;;5137248;27;20177;-81
2022/01/21 06:01:05;;;;;;;14.17;5.23;;;4.60;98.80;;;;;;5137842;27;20174;-80
2022/01/21 06:03:32;;;;;;;13.03;5.40;;;4.70;98.70;;;;;;5156104;27;20161;-79
2022/01/21 06:05:57;;;;;;;13.07;5.33;;;4.70;98.10;;;;;;5155872;27;20587;-79
2022/01/21 06:08:23;;;;;;;13.00;5.23;;;4.50;97.90;;;;;;5155150;27;20214;-79
2022/01/21 06:10:49;;;;;;;15.53;5.27;;;4.40;98.40;;;;;;5138284;27;20800;-84
2022/01/21 06:13:17;;;;;;;13.03;5.47;;;4.30;99.00;;;;;;5159536;27;20162;-80
2022/01/21 06:15:44;;;;;;;9.87;4.37;;;4.30;99.40;;;;;;5176286;27;20173;-80
2022/01/21 06:18:10;;;;;;;13.97;6.10;;;4.40;99.40;;;;;;5146265;27;20218;-78
2022/01/21 06:20:36;;;;;;;11.67;5.90;;;4.20;99.90;;;;;;5163748;27;20252;-84
2022/01/21 06:23:02;;;;;;;15.97;6.10;;;4.40;99.90;;;;;;5144390;27;20600;-80
2022/01/21 06:25:28;;;;;;;12.50;5.30;;;4.20;99.90;;;;;;5174357;27;20190;-79
2022/01/21 06:27:54;;;;;;;12.83;5.63;;;4.20;99.90;;;;;;5153280;27;20218;-78
2022/01/21 06:30:20;;;;;;;15.23;6.50;;;4.20;99.90;;;;;;5176891;27;20220;-81
2022/01/21 06:32:51;;;;;;;15.57;5.83;;;4.20;99.90;;;;;;5166728;27;20154;-79
2022/01/21 06:35:23;;;;;;;12.13;5.87;;;4.30;99.90;;;;;;5168014;27;20162;-80
2022/01/21 06:37:52;;;;;;;13.80;5.80;;;4.30;99.90;;;;;;5168763;27;20162;-79
2022/01/21 06:40:20;;;;;;;12.50;5.97;;;4.20;99.90;;;;;;5142456;27;20174;-81
2022/01/21 06:42:50;;;;;;;15.20;5.77;;;4.30;99.90;;;;;;5159317;27;20183;-82
2022/01/21 06:45:18;;;;;;;14.07;6.03;;;4.30;99.90;;;;;;5160668;27;20185;-85
2022/01/21 06:47:43;;;;;;;14.77;6.50;;;4.30;99.90;;;;;;5141231;27;20173;-82
2022/01/21 06:50:10;;;;;;;18.20;5.93;;;4.30;99.90;;;;;;5158724;27;20205;-81
2022/01/21 06:52:36;;;;;;;15.33;6.00;;;4.30;99.90;;;;;;5158702;27;20206;-80
2022/01/21 06:55:02;;;;;;;16.83;6.50;;;4.40;99.90;;;;;;5152154;27;20201;-80
2022/01/21 06:57:29;;;;;;;19.53;5.77;;;4.40;99.90;;;;;;5157791;27;20216;-80
2022/01/21 06:59:55;;;;;;;18.33;6.13;;;4.40;99.90;;;;;;5151755;27;20170;-81
2022/01/21 07:02:21;;;;;;;22.33;6.60;;;4.40;99.90;;;;;;5159565;27;20170;-82
2022/01/21 07:04:48;;;;;;;13.77;5.87;;;4.50;99.90;;;;;;5138949;27;20178;-83
2022/01/21 07:07:15;;;;;;;19.67;6.73;;;4.50;99.50;;;;;;5139211;27;20181;-80
2022/01/21 07:09:42;;;;;;;18.90;7.53;;;4.50;99.30;;;;;;5157564;27;20688;-83
2022/01/21 07:12:09;;;;;;;33.47;9.57;;;4.50;99.20;;;;;;5158440;27;20190;-81
2022/01/21 07:14:35;;;;;;;18.00;6.93;;;4.40;99.30;;;;;;5158617;27;20178;-80
2022/01/21 07:17:01;;;;;;;25.20;7.77;;;4.50;99.50;;;;;;5156506;27;20182;-80
2022/01/21 07:19:27;;;;;;;28.00;7.77;;;4.50;99.50;;;;;;5139223;27;20244;-83
2022/01/21 07:21:53;;;;;;;26.73;9.83;;;4.60;99.60;;;;;;5158407;27;20193;-80
2022/01/21 07:24:19;;;;;;;31.77;8.70;;;4.70;99.80;;;;;;5139773;27;20588;-83
2022/01/21 07:26:45;;;;;;;25.07;7.93;;;4.70;99.70;;;;;;5158437;27;20173;-80
2022/01/21 07:29:11;;;;;;;28.47;7.80;;;4.70;99.40;;;;;;5152644;27;20189;-83
2022/01/21 07:31:36;;;;;;;25.00;7.90;;;4.70;99.40;;;;;;5138491;27;20695;-81
2022/01/21 07:34:05;;;;;;;17.67;6.37;;;4.80;99.40;;;;;;5157388;27;20169;-81
2022/01/21 07:36:33;;;;;;;17.93;6.07;;;4.70;99.00;;;;;;5139212;27;20181;-81
2022/01/21 07:39:00;;;;;;;16.17;6.60;;;4.70;99.00;;;;;;5139775;27;20617;-83
2022/01/21 07:41:26;;;;;;;16.10;6.00;;;4.80;99.00;;;;;;5139523;27;20597;-82
2022/01/21 07:43:53;;;;;;;13.20;5.30;;;4.80;98.70;;;;;;5159008;27;20222;-80
2022/01/21 07:46:19;;;;;;;12.87;6.07;;;4.60;98.60;;;;;;5158757;27;20165;-82
2022/01/21 07:48:45;;;;;;;11.67;5.27;;;4.70;98.30;;;;;;5159973;27;20173;-83
2022/01/21 07:51:11;;;;;;;16.10;5.67;;;4.70;98.00;;;;;;5162840;27;20676;-82
2022/01/21 07:53:38;;;;;;;15.43;5.83;;;4.50;98.00;;;;;;5157530;27;20242;-82
2022/01/21 07:56:04;;;;;;;16.50;5.63;;;4.50;98.20;;;;;;5142670;27;20173;-81
2022/01/21 07:58:30;;;;;;;13.13;5.90;;;4.50;98.80;;;;;;5138906;27;20256;-83
2022/01/21 08:00:55;;;;;;;12.63;5.23;;;4.50;99.10;;;;;;5138367;27;20610;-82
2022/01/21 08:03:21;;;;;;;14.63;5.63;;;4.50;98.90;;;;;;5161222;27;20181;-83
2022/01/21 08:05:47;;;;;;;13.03;6.20;;;4.60;99.20;;;;;;5151739;27;20181;-81
2022/01/21 08:08:13;;;;;;;14.43;6.43;;;4.70;99.30;;;;;;5139404;27;20222;-83
2022/01/21 08:10:41;;;;;;;14.87;6.07;;;4.90;99.20;;;;;;5137209;27;20209;-81
2022/01/21 08:13:06;;;;;;;14.87;6.30;;;5.00;98.70;;;;;;5156713;27;20548;-82
2022/01/21 08:15:32;;;;;;;17.33;6.87;;;5.10;98.50;;;;;;5136283;27;20180;-82
2022/01/21 08:17:58;;;;;;;15.83;6.57;;;5.10;98.20;;;;;;5137776;27;20212;-83
2022/01/21 08:20:24;;;;;;;13.20;6.40;;;5.20;97.60;;;;;;5158574;27;20174;-83
2022/01/21 08:22:50;;;;;;;18.73;6.30;;;5.20;96.70;;;;;;5151638;27;20165;-82
2022/01/21 08:25:16;;;;;;;10.73;5.73;;;5.00;97.00;;;;;;5168955;27;20166;-82
2022/01/21 08:27:42;;;;;;;14.50;6.53;;;5.10;97.70;;;;;;5179261;27;20185;-79
2022/01/21 08:30:09;;;;;;;18.30;6.87;;;5.20;97.80;;;;;;5168320;27;20209;-85
2022/01/21 08:32:37;;;;;;;17.30;6.77;;;5.30;98.20;;;;;;5157116;27;20218;-84
2022/01/21 08:35:05;;;;;;;16.97;6.63;;;5.30;97.70;;;;;;5134248;27;20634;-85
2022/01/21 08:37:31;;;;;;;14.57;6.13;;;5.20;97.70;;;;;;5121249;27;20182;-82
2022/01/21 08:39:56;;;;;;;11.30;6.23;;;5.20;97.70;;;;;;5117590;28;20243;-85
2022/01/21 08:42:22;;;;;;;12.00;5.97;;;5.10;97.70;;;;;;5117515;27;20174;-83
2022/01/21 08:44:48;;;;;;;11.67;5.67;;;5.10;97.90;;;;;;5135975;27;20173;-82
2022/01/21 08:47:15;;;;;;;11.87;5.90;;;5.20;98.00;;;;;;5136721;27;20167;-83
2022/01/21 08:49:43;;;;;;;15.07;6.30;;;5.20;97.50;;;;;;5118573;27;20217;-84
2022/01/21 08:52:18;;;;;;;17.00;5.67;;;5.30;97.10;;;;;;5135746;27;20170;-83
2022/01/21 08:54:44;;;;;;;13.77;6.33;;;5.20;96.90;;;;;;5117803;27;20197;-82
2022/01/21 08:57:10;;;;;;;9.53;5.17;;;5.20;97.30;;;;;;5137169;27;20170;-84
2022/01/21 08:59:35;;;;;;;15.57;5.87;;;5.10;97.40;;;;;;5137174;27;20213;-82
2022/01/21 09:02:01;;;;;;;18.07;6.50;;;4.90;97.80;;;;;;5129571;27;20154;-83
2022/01/21 09:04:27;;;;;;;15.23;5.83;;;4.80;98.40;;;;;;5134300;27;20256;-81
2022/01/21 09:06:53;;;;;;;14.23;5.77;;;4.70;98.80;;;;;;5138867;27;20194;-84
2022/01/21 09:09:18;;;;;;;19.40;6.23;;;4.60;99.30;;;;;;5120937;27;20185;-83
2022/01/21 09:11:45;;;;;;;19.37;6.83;;;4.60;99.70;;;;;;5118084;27;20173;-82
2022/01/21 09:14:11;;;;;;;13.37;7.03;;;4.70;99.50;;;;;;5136795;27;20227;-83
2022/01/21 09:16:38;;;;;;;13.20;5.77;;;4.70;99.80;;;;;;5118156;27;20618;-84
2022/01/21 09:19:04;;;;;;;12.93;6.70;;;4.70;99.60;;;;;;5136640;27;20261;-82
2022/01/21 09:21:34;;;;;;;10.47;6.10;;;4.80;99.70;;;;;;5155237;27;20192;-83
2022/01/21 09:24:02;;;;;;;13.33;5.90;;;5.00;99.20;;;;;;5130671;27;20649;-82
2022/01/21 09:26:31;;;;;;;15.17;6.10;;;5.00;98.90;;;;;;5119744;27;20181;-81
2022/01/21 09:29:00;;;;;;;12.40;5.83;;;4.80;98.90;;;;;;5137998;27;20171;-83
2022/01/21 09:31:26;;;;;;;10.93;5.70;;;5.10;98.80;;;;;;5137340;27;20285;-84
2022/01/21 09:33:55;;;;;;;12.80;5.83;;;5.20;98.70;;;;;;5136324;27;20223;-82
2022/01/21 09:36:22;;;;;;;14.00;5.40;;;5.30;98.50;;;;;;5137025;27;20646;-85
2022/01/21 09:38:48;;;;;;;16.13;6.20;;;5.40;98.30;;;;;;5137168;27;20181;-84
2022/01/21 09:41:17;;;;;;;11.33;5.57;;;5.50;97.60;;;;;;5119736;27;20178;-84
2022/01/21 09:43:53;;;;;;;14.00;5.97;;;5.60;97.40;;;;;;5144141;27;20635;-81
2022/01/21 09:46:27;;;;;;;15.67;6.53;;;5.80;97.30;;;;;;5126806;27;20170;-84
2022/01/21 09:49:06;;;;;;;14.60;5.53;;;5.90;96.80;;;;;;5140366;27;20158;-83
2022/01/21 09:51:36;;;;;;;11.43;5.60;;;5.90;96.40;;;;;;5144548;27;20205;-83
2022/01/21 09:54:06;;;;;;;12.17;5.07;;;6.00;96.40;;;;;;5118998;27;20284;-83
2022/01/21 09:56:37;;;;;;;11.47;5.30;;;6.20;95.50;;;;;;5122431;28;20199;-82
2022/01/21 09:59:03;;;;;;;13.63;5.37;;;6.20;94.60;;;;;;5126433;28;20174;-82
2022/01/21 10:01:28;;;;;;;10.60;5.30;;;6.30;94.40;;;;;;5125062;28;20170;-84
2022/01/21 10:03:56;;;;;;;11.33;5.50;;;6.40;93.50;;;;;;5119807;28;20683;-83
2022/01/21 10:06:26;;;;;;;21.63;9.80;;;6.50;93.30;;;;;;5135559;27;20178;-84
2022/01/21 10:08:56;;;;;;;14.57;7.43;;;6.40;93.30;;;;;;5117509;28;20182;-85
2022/01/21 10:11:23;;;;;;;15.20;6.20;;;6.40;93.50;;;;;;5119388;28;20619;-87
2022/01/21 10:13:49;;;;;;;17.07;6.30;;;6.30;93.70;;;;;;5117904;28;20170;-84
2022/01/21 10:16:15;;;;;;;16.40;5.93;;;6.50;93.70;;;;;;5136051;28;20170;-82
2022/01/21 10:19:01;;;;;;;10.93;6.00;;;6.50;93.20;;;;;;5117907;28;20239;-84
2022/01/21 10:21:35;;;;;;;11.43;5.67;;;6.50;93.40;;;;;;5118265;28;20185;-83
2022/01/21 10:24:10;;;;;;;12.27;4.97;;;6.40;93.50;;;;;;5118547;28;20173;-84
2022/01/21 10:26:45;;;;;;;12.53;4.83;;;6.30;93.70;;;;;;5118946;28;20177;-84
2022/01/21 10:29:10;;;;;;;14.90;5.57;;;6.30;94.00;;;;;;5136889;28;20186;-84
2022/01/21 10:31:49;;;;;;;13.33;5.40;;;6.40;94.60;;;;;;5146221;28;20213;-81
2022/01/21 10:34:25;;;;;;;12.90;4.97;;;6.50;94.60;;;;;;5151886;28;20230;-82
2022/01/21 10:36:56;;;;;;;12.20;5.67;;;6.70;94.00;;;;;;5130288;28;20657;-83
2022/01/21 10:39:30;;;;;;;9.67;5.47;;;6.80;93.40;;;;;;5126238;28;20544;-85
2022/01/21 10:41:58;;;;;;;13.60;5.40;;;6.90;93.00;;;;;;5119391;28;20204;-83
2022/01/21 10:44:27;;;;;;;16.93;4.77;;;6.90;92.30;;;;;;5120887;28;20166;-83
2022/01/21 10:47:11;;;;;;;11.80;5.23;;;7.00;92.50;;;;;;5121808;28;20174;-83
2022/01/21 10:49:45;;;;;;;11.27;5.43;;;7.00;92.50;;;;;;5138335;28;20177;-84
2022/01/21 10:52:15;;;;;;;10.67;4.50;;;7.10;92.30;;;;;;5117613;28;20182;-83
2022/01/21 10:54:43;;;;;;;12.33;4.63;;;7.10;92.00;;;;;;5135371;28;20619;-84
2022/01/21 10:57:13;;;;;;;12.17;4.90;;;7.10;91.50;;;;;;5117317;28;20516;-85
2022/01/21 10:59:55;;;;;;;15.03;4.83;;;7.40;90.80;;;;;;5137629;28;20166;-85
2022/01/21 11:02:31;;;;;;;14.73;4.60;;;7.50;84.60;;;;;;5136660;28;20757;-82
2022/01/21 11:04:59;;;;;;;11.00;4.60;;;7.20;85.70;;;;;;5138084;27;20186;-81
2022/01/21 11:08:07;;;;;;;13.23;4.63;;;7.10;88.30;;;;;;5139208;27;20253;-83
2022/01/21 11:10:36;;;;;;;16.13;5.90;;;7.20;90.20;;;;;;5019732;28;20221;-84
2022/01/21 11:13:12;;;;;;;15.73;4.13;;;7.00;89.90;;;;;;5035612;28;20626;-85
2022/01/21 11:15:41;;;;;;;15.93;5.17;;;6.80;90.70;;;;;;5087065;27;20181;-84
2022/01/21 11:18:10;;;;;;;14.47;4.70;;;6.80;91.10;;;;;;5121538;27;20527;-83
2022/01/21 11:20:40;;;;;;;19.33;5.47;;;6.70;91.40;;;;;;5120053;27;20626;-81
2022/01/21 11:23:08;;;;;;;13.47;5.67;;;6.70;92.10;;;;;;5138717;27;20170;-84
2022/01/21 11:25:43;;;;;;;13.03;4.20;;;6.70;93.10;;;;;;5140715;27;20207;-85
2022/01/21 11:28:13;;;;;;;15.93;4.93;;;6.50;93.90;;;;;;5138905;27;20513;-84
2022/01/21 11:30:39;;;;;;;13.07;4.93;;;6.50;94.60;;;;;;5138935;27;20206;-84
2022/01/21 11:33:05;;;;;;;15.67;5.40;;;6.40;95.30;;;;;;5120307;27;20174;-83
2022/01/21 11:35:31;;;;;;;12.43;5.40;;;6.50;95.50;;;;;;5138191;27;20536;-81
2022/01/21 11:37:58;;;;;;;13.87;5.70;;;6.60;95.50;;;;;;5120558;27;20177;-85
2022/01/21 11:40:25;;;;;;;16.83;6.53;;;6.70;95.10;;;;;;5121699;27;20189;-85
2022/01/21 11:42:51;;;;;;;16.33;5.43;;;6.60;94.90;;;;;;5121058;27;20166;-85
2022/01/21 11:50:31;;;;;;;32.17;16.57;;;6.80;96.20;;;;;;5141203;27;20201;-83
2022/01/21 11:52:56;;;;;;;17.63;7.73;;;6.90;95.60;;;;;;5121065;27;20189;-85
2022/01/21 11:55:47;;;;;;;17.73;6.50;;;7.10;95.30;;;;;;5122100;27;20205;-84
2022/01/21 11:58:16;;;;;;;16.07;4.93;;;7.20;95.10;;;;;;5138937;27;20219;-83
2022/01/21 12:00:47;;;;;;;14.60;5.60;;;7.10;94.70;;;;;;5121025;27;20174;-82
2022/01/21 12:03:22;;;;;;;10.33;5.87;;;7.00;95.30;;;;;;5122066;27;20273;-84
2022/01/21 12:05:49;;;;;;;14.03;6.63;;;7.10;95.70;;;;;;5139570;27;20198;-83
2022/01/21 12:08:14;;;;;;;25.23;14.47;;;7.20;95.60;;;;;;5124271;27;20185;-82
2022/01/21 12:10:42;;;;;;;19.43;11.13;;;7.20;95.60;;;;;;5124256;27;20206;-82
2022/01/21 12:13:13;;;;;;;21.57;10.17;;;7.30;95.80;;;;;;5124617;27;20166;-83
2022/01/21 12:15:46;;;;;;;35.77;18.63;;;7.30;96.00;;;;;;5122369;27;20174;-83
2022/01/21 12:21:03;;;;;;;12.83;4.93;;;7.10;96.40;;;;;;5140379;27;20629;-86
2022/01/21 12:23:30;;;;;;;14.27;5.47;;;7.10;97.00;;;;;;5138666;27;20164;-84
2022/01/21 12:26:14;;;;;;;16.20;5.77;;;7.10;97.10;;;;;;5138815;27;20626;-86
2022/01/21 12:28:46;;;;;;;12.83;4.97;;;7.10;97.40;;;;;;5139416;27;20630;-86
2022/01/21 12:31:16;;;;;;;13.03;5.47;;;7.10;97.70;;;;;;5120678;27;20292;-85
2022/01/21 12:34:02;;;;;;;11.47;5.90;;;7.20;97.70;;;;;;5121251;27;20215;-83
2022/01/21 12:36:31;;;;;;;15.30;5.67;;;7.30;97.40;;;;;;5121853;27;20178;-84
2022/01/21 12:41:36;;;;;;;14.37;5.03;;;7.20;98.10;;;;;;5146376;27;20181;-82
2022/01/21 12:44:05;;;;;;;15.10;5.67;;;7.10;98.40;;;;;;5122777;27;20174;-84
2022/01/21 12:46:44;;;;;;;17.23;5.70;;;7.10;99.30;;;;;;5122748;27;20264;-85
2022/01/21 12:49:33;;;;;;;17.93;6.50;;;7.10;99.50;;;;;;5109841;27;20185;-83
2022/01/21 12:57:27;;;;;;;13.77;6.63;;;7.30;99.20;;;;;;5141429;27;20169;-85
2022/01/21 12:59:59;;;;;;;13.90;5.07;;;7.20;98.70;;;;;;5122944;27;20193;-85
2022/01/21 13:02:27;;;;;;;12.97;5.13;;;7.20;99.10;;;;;;5122428;27;20215;-83
2022/01/21 13:05:26;;;;;;;12.70;5.23;;;7.10;99.00;;;;;;5123661;27;20167;-80
2022/01/21 13:08:07;;;;;;;14.27;6.30;;;7.20;99.10;;;;;;5123055;27;20532;-82
2022/01/21 13:10:33;;;;;;;20.53;10.03;;;7.20;99.10;;;;;;5122168;27;20277;-82
2022/01/21 13:13:14;;;;;;;17.27;9.00;;;7.30;98.80;;;;;;5138591;27;20189;-85
2022/01/21 13:15:47;;;;;;;9.20;5.20;;;7.30;98.10;;;;;;5139512;27;20162;-82
2022/01/21 13:18:31;;;;;;;15.07;5.77;;;7.20;98.50;;;;;;5119565;27;20170;-85
2022/01/21 13:21:05;;;;;;;13.20;5.10;;;7.30;98.30;;;;;;5138601;27;20170;-85
2022/01/21 13:23:37;;;;;;;11.37;5.07;;;7.30;97.90;;;;;;5138068;27;20169;-86
2022/01/21 13:26:25;;;;;;;13.43;6.90;;;7.40;97.90;;;;;;5120718;27;20170;-86
2022/01/21 13:29:07;;;;;;;10.97;5.87;;;7.30;97.90;;;;;;5119919;27;20162;-82
2022/01/21 13:31:54;;;;;;;9.77;4.70;;;7.40;97.90;;;;;;5137483;27;20198;-84
2022/01/21 13:34:22;;;;;;;12.27;5.77;;;7.30;98.00;;;;;;5111583;27;20174;-86
2022/01/21 13:36:53;;;;;;;11.00;5.30;;;7.30;98.00;;;;;;5121106;27;20170;-82
2022/01/21 13:39:29;;;;;;;22.67;5.00;;;7.30;98.40;;;;;;5123522;27;20170;-84
2022/01/21 13:41:59;;;;;;;12.30;5.63;;;7.30;98.30;;;;;;5122824;27;20177;-82
2022/01/21 13:44:51;;;;;;;13.70;5.13;;;7.30;98.80;;;;;;5120366;28;20178;-83
2022/01/21 13:47:24;;;;;;;12.97;5.23;;;7.30;98.90;;;;;;5119582;27;20174;-83
2022/01/21 13:49:52;;;;;;;14.30;6.17;;;7.30;98.90;;;;;;5119841;28;20563;-84
2022/01/21 13:52:20;;;;;;;16.80;6.20;;;7.30;99.10;;;;;;5119970;27;20170;-85
2022/01/21 13:54:47;;;;;;;13.53;5.83;;;7.30;99.10;;;;;;5120323;28;20190;-85